createdAt,value
2022-11-20T00:00:40.730Z,-2.8
2022-11-20T00:02:42.521Z,-2.6
2022-11-20T00:06:46.025Z,-2.7
2022-11-20T00:08:47.802Z,-2.8
2022-11-20T00:10:49.575Z,-2.5
2022-11-20T00:12:54.531Z,-2.8
2022-11-20T00:14:56.289Z,-2.7
2022-11-20T00:16:58.039Z,-2.8
2022-11-20T00:18:59.763Z,-2.7
2022-11-20T00:21:01.553Z,-3.2
2022-11-20T00:23:03.291Z,-2.9
2022-11-20T00:25:05.064Z,-2.9
2022-11-20T00:27:10.039Z,-2.8
2022-11-20T00:29:11.773Z,-2.7
2022-11-20T00:31:13.534Z,-3
2022-11-20T00:33:42.408Z,-2.9
2022-11-20T00:35:44.197Z,-2.8
2022-11-20T00:37:45.929Z,-2.8
2022-11-20T00:39:50.922Z,-3
2022-11-20T00:41:52.667Z,-3.1
2022-11-20T00:43:54.410Z,-3.1
2022-11-20T00:45:56.173Z,-2.8
2022-11-20T00:47:57.911Z,-3
2022-11-20T00:49:59.663Z,-3
2022-11-20T00:52:01.409Z,-3.2
2022-11-20T00:54:06.376Z,-2.9
2022-11-20T00:56:08.096Z,-3.3
2022-11-20T00:58:14.108Z,-3.5
2022-11-20T01:00:11.571Z,-3.1
2022-11-20T01:02:13.343Z,-3
2022-11-20T01:04:15.079Z,-3.5
2022-11-20T01:06:16.828Z,-3.2
2022-11-20T01:08:21.781Z,-3.3
2022-11-20T01:10:23.541Z,-3.4
2022-11-20T01:12:25.283Z,-3.3
2022-11-20T01:14:27.028Z,-3.4
2022-11-20T01:16:28.799Z,-4
2022-11-20T01:18:30.516Z,-3.3
2022-11-20T01:22:38.745Z,-3.5
2022-11-20T01:24:40.468Z,-3.3
2022-11-20T01:26:42.219Z,-3.3
2022-11-20T01:27:44.709Z,-3.3
2022-11-20T01:29:46.421Z,-3.2
2022-11-20T01:31:48.183Z,-3.3
2022-11-20T01:33:49.873Z,-3.8
2022-11-20T01:35:54.843Z,-3.3
2022-11-20T01:37:56.565Z,-3.7
2022-11-20T01:39:58.308Z,-3.5
2022-11-20T01:42:00.061Z,-3.4
2022-11-20T01:44:01.797Z,-3.3
2022-11-20T01:46:03.499Z,-3.3
2022-11-20T01:48:05.212Z,-3.5
2022-11-20T01:50:10.200Z,-3.4
2022-11-20T01:54:13.664Z,-3.6
2022-11-20T01:56:15.382Z,-3.6
2022-11-20T01:58:17.119Z,-3.7
2022-11-20T02:00:18.821Z,-3.6
2022-11-20T02:02:20.541Z,-3.7
2022-11-20T02:04:25.456Z,-3.5
2022-11-20T02:06:27.215Z,-3.6
2022-11-20T02:08:28.938Z,-3.5
2022-11-20T02:10:30.638Z,-3.5
2022-11-20T02:12:32.365Z,-3.9
2022-11-20T02:14:34.071Z,-3.7
2022-11-20T02:16:35.797Z,-3.6
2022-11-20T02:18:40.738Z,-3.7
2022-11-20T02:23:46.685Z,-3.3
2022-11-20T02:25:48.392Z,-3.5
2022-11-20T02:27:50.102Z,-3.5
2022-11-20T02:31:56.747Z,-3.5
2022-11-20T02:33:58.475Z,-3.7
2022-11-20T02:36:00.190Z,-3.9
2022-11-20T02:38:01.927Z,-3.5
2022-11-20T02:42:05.318Z,-3.9
2022-11-20T02:44:07.054Z,-4.1
2022-11-20T02:46:11.996Z,-4
2022-11-20T02:50:15.428Z,-3.5
2022-11-20T02:52:17.125Z,-3.6
2022-11-20T02:54:18.818Z,-3.8
2022-11-20T02:56:20.548Z,-3.7
2022-11-20T03:00:27.189Z,-4.1
2022-11-20T03:02:28.895Z,-3.7
2022-11-20T03:04:30.620Z,-4.1
2022-11-20T03:06:32.309Z,-3.7
2022-11-20T03:08:34.023Z,-4.1
2022-11-20T03:10:35.705Z,-4.1
2022-11-20T03:12:37.429Z,-4.2
2022-11-20T03:16:44.070Z,-3.9
2022-11-20T03:18:45.772Z,-4.2
2022-11-20T03:19:48.220Z,-3.9
2022-11-20T03:21:49.926Z,-3.9
2022-11-20T03:23:51.644Z,-4
2022-11-20T03:25:53.337Z,-4.2
2022-11-20T03:27:58.271Z,-4
2022-11-20T03:30:00.018Z,-4.1
2022-11-20T03:32:01.680Z,-4
2022-11-20T03:34:03.399Z,-4.2
2022-11-20T03:36:05.110Z,-4.3
2022-11-20T03:38:06.789Z,-4.1
2022-11-20T03:40:08.519Z,-4
2022-11-20T03:42:13.410Z,-4.4
2022-11-20T03:44:15.132Z,-4
2022-11-20T03:46:16.838Z,-4.4
2022-11-20T03:48:18.546Z,-4.2
2022-11-20T03:50:20.240Z,-4.3
2022-11-20T03:52:21.933Z,-4.3
2022-11-20T03:54:23.651Z,-4.4
2022-11-20T03:56:28.559Z,-4.4
2022-11-20T03:58:30.264Z,-4.5
2022-11-20T04:00:31.974Z,-4.3
2022-11-20T04:02:33.654Z,-4.6
2022-11-20T04:04:35.363Z,-4.3
2022-11-20T04:06:37.053Z,-4.2
2022-11-20T04:08:38.760Z,-4.3
2022-11-20T04:10:43.677Z,-4.2
2022-11-20T04:12:45.378Z,-4.3
2022-11-20T04:14:47.135Z,-4.2
2022-11-20T04:17:09.900Z,-4.4
2022-11-20T04:19:11.608Z,-4.8
2022-11-20T04:21:13.284Z,-4.1
2022-11-20T04:25:19.923Z,-4.2
2022-11-20T04:27:21.612Z,-4.1
2022-11-20T04:29:23.749Z,-4.2
2022-11-20T04:31:24.981Z,-4.1
2022-11-20T04:33:28.948Z,-4.5
2022-11-20T04:35:28.346Z,-4.2
2022-11-20T04:37:33.307Z,-4.4
2022-11-20T04:39:35.010Z,-4
2022-11-20T04:41:36.719Z,-4.1
2022-11-20T04:43:38.400Z,-4.2
2022-11-20T04:45:40.099Z,-3.9
2022-11-20T04:47:41.770Z,-3.9
2022-11-20T04:49:43.529Z,-4
2022-11-20T04:51:48.398Z,-4
2022-11-20T04:53:50.108Z,-4.1
2022-11-20T04:55:51.786Z,-4
2022-11-20T04:57:53.471Z,-4.3
2022-11-20T04:59:55.153Z,-4.2
2022-11-20T05:01:56.945Z,-4.2
2022-11-20T05:03:58.534Z,-4.3
2022-11-20T05:06:03.453Z,-4.3
2022-11-20T05:08:05.156Z,-4.3
2022-11-20T05:11:09.303Z,-4.5
2022-11-20T05:13:11.000Z,-4.5
2022-11-20T05:15:12.682Z,-4.6
2022-11-20T05:17:14.393Z,-4.5
2022-11-20T05:19:19.869Z,-4.5
2022-11-20T05:21:20.999Z,-4.7
2022-11-20T05:23:22.707Z,-4.7
2022-11-20T05:25:24.406Z,-4.8
2022-11-20T05:27:26.084Z,-4.5
2022-11-20T05:29:27.774Z,-4.6
2022-11-20T05:31:29.464Z,-4.7
2022-11-20T05:33:34.383Z,-4.4
2022-11-20T05:35:36.070Z,-4.5
2022-11-20T05:37:37.744Z,-4.4
2022-11-20T05:39:39.453Z,-4.4
2022-11-20T05:41:41.138Z,-4.5
2022-11-20T05:43:42.854Z,-4.4
2022-11-20T05:47:49.465Z,-4.4
2022-11-20T05:49:51.140Z,-4.5
2022-11-20T05:51:52.835Z,-4.3
2022-11-20T05:53:54.503Z,-4.5
2022-11-20T05:55:56.208Z,-4.4
2022-11-20T05:57:57.894Z,-4.4
2022-11-20T05:59:59.566Z,-4.4
2022-11-20T06:02:04.461Z,-4.5
2022-11-20T06:04:06.161Z,-4.6
2022-11-20T06:06:08.025Z,-4.4
2022-11-20T06:09:12.019Z,-4.6
2022-11-20T06:11:13.706Z,-4.3
2022-11-20T06:13:15.404Z,-4.3
2022-11-20T06:15:20.331Z,-4.5
2022-11-20T06:17:22.008Z,-4.7
2022-11-20T06:19:23.945Z,-4.7
2022-11-20T06:21:25.358Z,-4.6
2022-11-20T06:23:27.038Z,-4.8
2022-11-20T06:25:28.751Z,-5
2022-11-20T06:29:35.326Z,-5
2022-11-20T06:31:37.013Z,-4.9
2022-11-20T06:33:38.698Z,-4.9
2022-11-20T06:39:43.751Z,-4.9
2022-11-20T06:41:45.433Z,-4.7
2022-11-20T06:43:50.331Z,-4.9
2022-11-20T06:45:52.014Z,-5
2022-11-20T06:47:53.693Z,-5
2022-11-20T06:49:55.361Z,-5
2022-11-20T06:51:57.049Z,-5
2022-11-20T06:53:58.723Z,-5.1
2022-11-20T06:56:00.425Z,-5.1
2022-11-20T06:58:05.330Z,-5
2022-11-20T07:00:06.976Z,-5
2022-11-20T07:02:08.658Z,-5.1
2022-11-20T07:05:12.802Z,-4.9
2022-11-20T07:07:14.550Z,-5
2022-11-20T07:09:16.154Z,-4.9
2022-11-20T07:11:22.648Z,-5
2022-11-20T07:13:24.240Z,-5.1
2022-11-20T07:19:29.266Z,-4.7
2022-11-20T07:23:32.593Z,-4.8
2022-11-20T07:25:37.496Z,-4.9
2022-11-20T07:31:42.527Z,-4.5
2022-11-20T07:33:44.176Z,-4.4
2022-11-20T07:35:45.847Z,-4.4
2022-11-20T07:37:47.512Z,-4.8
2022-11-20T07:39:52.440Z,-4.3
2022-11-20T07:41:54.125Z,-4.3
2022-11-20T07:43:55.798Z,-4.2
2022-11-20T07:45:57.458Z,-4.3
2022-11-20T07:47:59.125Z,-4.3
2022-11-20T07:50:00.811Z,-4.1
2022-11-20T07:52:05.198Z,-4.3
2022-11-20T07:54:07.420Z,-4
2022-11-20T08:00:39.728Z,-3.7
2022-11-20T08:02:41.366Z,-3.8
2022-11-20T08:04:43.039Z,-3.4
2022-11-20T08:06:47.963Z,-2.9
2022-11-20T08:08:49.821Z,-2.9
2022-11-20T08:10:51.387Z,-3
2022-11-20T08:12:53.115Z,-3.2
2022-11-20T08:14:54.816Z,-2.7
2022-11-20T08:16:56.534Z,-3
2022-11-20T08:18:58.287Z,-2.9
2022-11-20T08:21:03.255Z,-2.7
2022-11-20T08:23:04.962Z,-2.8
2022-11-20T08:25:06.694Z,-2.7
2022-11-20T08:27:08.412Z,-2.7
2022-11-20T08:29:10.122Z,-2.8
2022-11-20T08:31:11.870Z,-2.6
2022-11-20T08:33:13.638Z,-2.7
2022-11-20T08:39:22.203Z,-0.5
2022-11-20T08:41:23.803Z,0.1
2022-11-20T08:43:25.571Z,0.1
2022-11-20T08:45:32.390Z,-1
2022-11-20T08:51:35.927Z,-1.7
2022-11-20T08:53:37.764Z,-1.9
2022-11-20T08:54:40.286Z,-1.7
2022-11-20T08:56:42.058Z,-1.5
2022-11-20T08:59:16.190Z,-1.2
2022-11-20T09:00:45.777Z,-0.7
2022-11-20T09:02:50.705Z,0
2022-11-20T09:04:52.500Z,-0.2
2022-11-20T09:06:54.329Z,0.2
2022-11-20T09:08:56.145Z,1.1
2022-11-20T09:10:57.962Z,1.2
2022-11-20T09:12:59.772Z,1
2022-11-20T09:15:01.640Z,0.5
2022-11-20T09:17:06.696Z,1.5
2022-11-20T09:21:10.434Z,2.9
2022-11-20T09:23:12.292Z,2.5
2022-11-20T09:25:14.143Z,1.5
2022-11-20T09:27:15.999Z,0.5
2022-11-20T09:29:17.891Z,0.2
2022-11-20T09:31:23.066Z,-0.2
2022-11-20T09:33:24.843Z,-0.4
2022-11-20T09:35:26.712Z,-0.2
2022-11-20T09:37:28.559Z,-0.2
2022-11-20T09:39:30.455Z,-0.5
2022-11-20T09:41:32.331Z,-0.3
2022-11-20T09:45:39.239Z,-0.2
2022-11-20T09:47:41.109Z,-0.3
2022-11-20T09:49:42.979Z,-0.6
2022-11-20T09:50:45.534Z,-0.1
2022-11-20T09:52:47.412Z,-0.1
2022-11-20T09:54:49.274Z,-0.2
2022-11-20T09:56:51.114Z,-0.2
2022-11-20T10:00:58.129Z,0.1
2022-11-20T10:02:59.925Z,0.2
2022-11-20T10:05:01.838Z,0.4
2022-11-20T10:07:30.663Z,0.2
2022-11-20T10:09:05.516Z,0.2
2022-11-20T10:11:07.342Z,0.3
2022-11-20T10:13:12.417Z,0.4
2022-11-20T10:15:14.253Z,0.2
2022-11-20T10:17:16.257Z,0.4
2022-11-20T10:19:17.984Z,0.5
2022-11-20T10:21:19.880Z,0.6
2022-11-20T10:23:25.583Z,0.9
2022-11-20T10:25:23.560Z,1
2022-11-20T10:27:28.650Z,1.1
2022-11-20T10:29:30.499Z,1.1
2022-11-20T10:31:32.348Z,1
2022-11-20T10:33:50.151Z,0.9
2022-11-20T10:35:36.054Z,1.2
2022-11-20T10:37:37.904Z,0.9
2022-11-20T10:39:39.779Z,1.2
2022-11-20T10:41:44.904Z,0.9
2022-11-20T10:43:46.760Z,1.3
2022-11-20T10:45:48.592Z,1.3
2022-11-20T10:46:51.174Z,1.3
2022-11-20T10:48:53.060Z,1.4
2022-11-20T10:50:54.931Z,1.5
2022-11-20T10:52:56.817Z,1.6
2022-11-20T10:55:01.926Z,1.6
2022-11-20T10:57:03.763Z,2.2
2022-11-20T10:59:05.632Z,1.9
2022-11-20T11:01:07.596Z,3
2022-11-20T11:03:09.413Z,3
2022-11-20T11:05:14.358Z,3.2
2022-11-20T11:07:13.240Z,2.7
2022-11-20T11:09:18.335Z,2.6
2022-11-20T11:11:20.223Z,2.6
2022-11-20T11:13:22.100Z,2.9
2022-11-20T11:15:24.025Z,3
2022-11-20T11:17:25.927Z,3
2022-11-20T11:19:27.840Z,3.3
2022-11-20T11:21:29.714Z,3.2
2022-11-20T11:23:34.858Z,4.3
2022-11-20T11:25:36.747Z,4.3
2022-11-20T11:27:38.647Z,3.5
2022-11-20T11:29:40.546Z,3.2
2022-11-20T11:31:42.469Z,3.3
2022-11-20T11:33:44.372Z,3
2022-11-20T11:35:49.896Z,3.2
2022-11-20T11:37:51.384Z,3.2
2022-11-20T11:40:22.374Z,3.4
2022-11-20T11:41:55.253Z,3.1
2022-11-20T11:44:24.158Z,2.8
2022-11-20T11:46:26.045Z,2.8
2022-11-20T11:48:27.938Z,2.6
2022-11-20T11:50:33.080Z,2.9
2022-11-20T11:52:34.984Z,2.7
2022-11-20T11:54:36.924Z,2.6
2022-11-20T11:56:38.831Z,2.8
2022-11-20T11:58:40.737Z,2.7
2022-11-20T12:00:42.655Z,2.7
2022-11-20T12:02:44.569Z,3.2
2022-11-20T12:04:49.735Z,2.9
2022-11-20T12:06:51.650Z,2.6
2022-11-20T12:08:53.539Z,2.8
2022-11-20T12:10:55.490Z,2.6
2022-11-20T12:12:57.401Z,2.7
2022-11-20T12:14:59.310Z,2.6
2022-11-20T12:17:01.217Z,2.5
2022-11-20T12:23:10.186Z,2.5
2022-11-20T12:25:12.109Z,2.6
2022-11-20T12:27:14.006Z,2.8
2022-11-20T12:29:15.896Z,2.4
2022-11-20T12:31:17.861Z,2.6
2022-11-20T12:33:22.968Z,2.3
2022-11-20T12:35:24.877Z,2.5
2022-11-20T12:37:26.757Z,2.5
2022-11-20T12:38:29.351Z,2.5
2022-11-20T12:40:31.219Z,2.3
2022-11-20T12:42:33.120Z,2.1
2022-11-20T12:46:40.150Z,2.3
2022-11-20T12:56:51.155Z,2.3
2022-11-20T12:58:51.585Z,2
2022-11-20T13:03:00.233Z,1.9
2022-11-20T13:05:02.089Z,2.1
2022-11-20T13:07:04.013Z,2
2022-11-20T13:09:05.865Z,2
2022-11-20T13:11:07.787Z,1.8
2022-11-20T13:13:09.680Z,1.6
2022-11-20T13:15:14.788Z,1.8
2022-11-20T13:19:18.618Z,1.8
2022-11-20T13:21:20.514Z,2
2022-11-20T13:23:22.428Z,1.8
2022-11-20T13:27:26.182Z,1.6
2022-11-20T13:29:31.285Z,1.9
2022-11-20T13:31:33.210Z,1.9
2022-11-20T13:33:35.087Z,1.8
2022-11-20T13:36:39.573Z,1.7
2022-11-20T13:38:41.476Z,1.6
2022-11-20T13:40:43.345Z,1.7
2022-11-20T13:44:50.365Z,1.8
2022-11-20T13:46:52.261Z,1.7
2022-11-20T13:48:54.143Z,1.3
2022-11-20T13:50:56.016Z,2.1
2022-11-20T13:52:57.906Z,1.9
2022-11-20T13:54:59.810Z,1.4
2022-11-20T13:57:04.927Z,1.9
2022-11-20T13:59:10.753Z,1.7
2022-11-20T14:01:08.767Z,1.9
2022-11-20T14:03:10.597Z,1.8
2022-11-20T14:05:12.504Z,1.8
2022-11-20T14:09:16.290Z,1.7
2022-11-20T14:11:21.394Z,1.6
2022-11-20T14:13:23.290Z,1.8
2022-11-20T14:15:25.196Z,1.7
2022-11-20T14:17:27.090Z,2.1
2022-11-20T14:19:29.010Z,1.8
2022-11-20T14:21:30.872Z,1.9
2022-11-20T14:23:32.759Z,2.1
2022-11-20T14:27:39.736Z,1.8
2022-11-20T14:29:41.649Z,1.7
2022-11-20T14:30:44.226Z,1.6
2022-11-20T14:32:46.093Z,1.7
2022-11-20T14:34:47.967Z,1.7
2022-11-20T14:36:49.851Z,1.3
2022-11-20T14:38:54.973Z,1.9
2022-11-20T14:45:00.622Z,1.8
2022-11-20T14:47:02.533Z,1.8
2022-11-20T14:49:04.441Z,1.6
2022-11-20T14:51:06.339Z,1.8
2022-11-20T14:53:11.477Z,1.6
2022-11-20T14:55:13.283Z,1.9
2022-11-20T14:57:15.192Z,1.5
2022-11-20T14:59:17.288Z,2
2022-11-20T15:01:18.976Z,1.5
2022-11-20T15:03:20.889Z,2.1
2022-11-20T15:05:22.736Z,1.8
2022-11-20T15:09:29.726Z,1.6
2022-11-20T15:11:31.606Z,1.9
2022-11-20T15:13:33.490Z,1.9
2022-11-20T15:21:44.267Z,2.1
2022-11-20T15:25:48.089Z,2
2022-11-20T15:28:16.961Z,1.9
2022-11-20T15:30:18.843Z,2
2022-11-20T15:32:20.728Z,1.9
2022-11-20T15:34:26.052Z,1.2
2022-11-20T15:36:27.722Z,1.9
2022-11-20T15:38:29.642Z,1.9
2022-11-20T15:40:31.524Z,1.6
2022-11-20T15:42:33.425Z,1.9
2022-11-20T15:44:35.391Z,1.7
2022-11-20T15:46:37.192Z,1.8
2022-11-20T15:48:47.538Z,1.6
2022-11-20T15:50:44.206Z,2
2022-11-20T15:52:46.097Z,1.7
2022-11-20T15:54:47.988Z,1.5
2022-11-20T15:56:49.864Z,2
2022-11-20T15:58:51.746Z,1.3
2022-11-20T16:00:53.677Z,2.1
2022-11-20T16:02:58.759Z,1.7
2022-11-20T16:05:00.662Z,1.8
2022-11-20T16:07:02.561Z,1.7
2022-11-20T16:09:04.404Z,1.8
2022-11-20T16:15:13.597Z,1.2
2022-11-20T16:17:15.186Z,1.8
2022-11-20T16:19:17.087Z,2
2022-11-20T16:22:21.508Z,1.9
2022-11-20T16:24:23.598Z,2
2022-11-20T16:26:25.290Z,1.9
2022-11-20T16:28:27.181Z,1.9
2022-11-20T16:30:32.342Z,2
2022-11-20T16:32:34.207Z,1.9
2022-11-20T16:34:36.087Z,1.9
2022-11-20T16:36:38.009Z,1.9
2022-11-20T16:38:39.898Z,1.8
2022-11-20T16:40:41.808Z,1.7
2022-11-20T16:42:43.696Z,1.8
2022-11-20T16:46:50.700Z,2
2022-11-20T16:48:52.585Z,1.8
2022-11-20T16:50:54.488Z,1.9
2022-11-20T16:57:00.172Z,1.7
2022-11-20T16:59:05.269Z,1.7
2022-11-20T17:01:07.233Z,1.8
2022-11-20T17:05:10.941Z,1.8
2022-11-20T17:07:12.877Z,1.8
2022-11-20T17:11:16.616Z,1.9
2022-11-20T17:13:21.776Z,1.7
2022-11-20T17:15:23.661Z,1.5
2022-11-20T17:17:25.579Z,2.2
2022-11-20T17:20:29.985Z,1.7
2022-11-20T17:22:31.886Z,1.8
2022-11-20T17:24:34.094Z,2.3
2022-11-20T17:26:38.908Z,1.8
2022-11-20T17:28:40.802Z,1.6
2022-11-20T17:30:42.699Z,1.7
2022-11-20T17:32:44.612Z,1.8
2022-11-20T17:34:46.505Z,2
2022-11-20T17:36:48.386Z,1.8
2022-11-20T17:38:50.266Z,1.7
2022-11-20T17:40:55.376Z,1.6
2022-11-20T17:42:57.285Z,2.1
2022-11-20T17:47:01.045Z,2
2022-11-20T17:49:02.930Z,2
2022-11-20T17:51:04.794Z,2
2022-11-20T17:53:06.711Z,1.5
2022-11-20T17:55:11.844Z,1.8
2022-11-20T17:57:13.713Z,1.9
2022-11-20T17:59:15.605Z,2.2
2022-11-20T18:01:17.531Z,1.8
2022-11-20T18:03:19.362Z,2.1
2022-11-20T18:05:21.252Z,2
2022-11-20T18:13:32.050Z,1.8
2022-11-20T18:14:34.672Z,2.1
2022-11-20T18:16:36.502Z,2.1
2022-11-20T18:18:38.419Z,2.1
2022-11-20T18:20:40.422Z,2.2
2022-11-20T18:22:45.438Z,1.9
2022-11-20T18:24:47.315Z,2
2022-11-20T18:28:51.101Z,2
2022-11-20T18:30:52.998Z,1.9
2022-11-20T18:32:54.879Z,1.9
2022-11-20T18:37:01.905Z,2
2022-11-20T18:39:03.785Z,2
2022-11-20T18:47:14.435Z,2
2022-11-20T18:49:13.251Z,2
2022-11-20T18:51:18.363Z,2.1
2022-11-20T18:53:20.267Z,1.8
2022-11-20T18:55:23.732Z,2
2022-11-20T18:57:25.575Z,2.3
2022-11-20T18:59:28.009Z,2
2022-11-20T19:01:29.420Z,2
2022-11-20T19:03:31.264Z,1.8
2022-11-20T19:05:36.402Z,1.5
2022-11-20T19:07:38.321Z,2.1
2022-11-20T19:09:40.148Z,1.9
2022-11-20T19:14:10.902Z,2
2022-11-20T19:16:12.776Z,1.9
2022-11-20T19:18:17.906Z,2.4
2022-11-20T19:20:19.787Z,2.1
2022-11-20T19:22:21.699Z,2.1
2022-11-20T19:24:23.597Z,1.9
2022-11-20T19:26:25.492Z,2.1
2022-11-20T19:28:27.430Z,2.1
2022-11-20T19:30:29.312Z,2
2022-11-20T19:32:34.408Z,2.1
2022-11-20T19:34:36.341Z,2.2
2022-11-20T19:36:44.369Z,1.6
2022-11-20T19:38:43.704Z,2
2022-11-20T19:40:42.051Z,1.8
2022-11-20T19:42:43.899Z,1.9
2022-11-20T19:44:45.797Z,2
2022-11-20T19:46:50.943Z,1.5
2022-11-20T19:48:52.817Z,1.8
2022-11-20T19:57:00.366Z,2.1
2022-11-20T20:05:11.209Z,1.7
2022-11-20T20:06:13.739Z,2
2022-11-20T20:08:17.113Z,1.3
2022-11-20T20:10:17.492Z,1.9
2022-11-20T20:12:19.409Z,1.8
2022-11-20T20:14:24.489Z,1.6
2022-11-20T20:16:26.401Z,1.9
2022-11-20T20:18:28.258Z,1.6
2022-11-20T20:20:30.166Z,2
2022-11-20T20:22:32.043Z,1.5
2022-11-20T20:24:33.937Z,1.8
2022-11-20T20:26:35.849Z,1.6
2022-11-20T20:28:40.947Z,1.5
2022-11-20T20:30:42.845Z,2
2022-11-20T20:32:44.724Z,1.7
2022-11-20T20:34:46.621Z,1.4
2022-11-20T20:38:50.425Z,1.3
2022-11-20T20:40:52.318Z,1.9
2022-11-20T20:42:57.450Z,1.6
2022-11-20T20:47:01.206Z,1.4
2022-11-20T20:49:03.096Z,1.7
2022-11-20T20:57:13.864Z,1.4
2022-11-20T20:59:15.773Z,1.7
2022-11-20T21:01:17.758Z,1.3
2022-11-20T21:04:22.129Z,1.5
2022-11-20T21:06:23.980Z,1.6
2022-11-20T21:08:25.861Z,1.7
2022-11-20T21:10:31.007Z,1.7
2022-11-20T21:12:32.888Z,1.8
2022-11-20T21:14:34.799Z,1.5
2022-11-20T21:16:36.692Z,1.7
2022-11-20T21:18:38.614Z,1.9
2022-11-20T21:20:40.486Z,1.6
2022-11-20T21:22:42.364Z,1.6
2022-11-20T21:24:47.479Z,1.5
2022-11-20T21:26:49.387Z,1.5
2022-11-20T21:28:51.285Z,1.7
2022-11-20T21:30:53.149Z,1.5
2022-11-20T21:32:55.056Z,1.5
2022-11-20T21:34:56.916Z,1.6
2022-11-20T21:36:58.785Z,1.4
2022-11-20T21:39:03.909Z,1.5
2022-11-20T21:41:05.801Z,1.5
2022-11-20T21:43:07.836Z,1.2
2022-11-20T21:45:09.564Z,1.6
2022-11-20T21:47:11.468Z,1.5
2022-11-20T21:49:13.347Z,1.5
2022-11-20T21:51:15.249Z,1.5
2022-11-20T21:53:20.516Z,1.3
2022-11-20T21:55:22.264Z,1.3
2022-11-20T21:57:24.128Z,1.5
2022-11-20T21:58:26.671Z,1.4
2022-11-20T22:00:28.554Z,1.6
2022-11-20T22:02:30.443Z,1.8
2022-11-20T22:04:32.319Z,1.3
2022-11-20T22:06:37.432Z,1.4
2022-11-20T22:08:39.338Z,1.5
2022-11-20T22:10:41.204Z,1.8
2022-11-20T22:12:43.099Z,1.4
2022-11-20T22:14:44.974Z,1.7
2022-11-20T22:16:46.883Z,1.5
2022-11-20T22:18:48.744Z,1.1
2022-11-20T22:20:53.859Z,1.5
2022-11-20T22:22:55.733Z,1.5
2022-11-20T22:24:57.605Z,1.5
2022-11-20T22:26:59.466Z,1.2
2022-11-20T22:29:01.356Z,1.3
2022-11-20T22:31:03.242Z,1.5
2022-11-20T22:33:10.342Z,1.5
2022-11-20T22:35:10.263Z,1.3
2022-11-20T22:37:12.150Z,1.7
2022-11-20T22:39:14.022Z,1.6
2022-11-20T22:41:15.897Z,1.4
2022-11-20T22:43:17.780Z,1.3
2022-11-20T22:47:21.565Z,1.3
2022-11-20T22:51:28.515Z,1.4
2022-11-20T22:53:30.395Z,1.5
2022-11-20T22:58:01.208Z,1.7
2022-11-20T23:00:03.192Z,1.2
2022-11-20T23:08:13.812Z,1.3
2022-11-20T23:10:15.746Z,1.2
2022-11-20T23:12:17.569Z,1.4
2022-11-20T23:14:22.584Z,1.4
2022-11-20T23:16:24.549Z,1.5
2022-11-20T23:18:26.407Z,1.4
2022-11-20T23:20:28.326Z,1.2
2022-11-20T23:24:32.071Z,1.2
2022-11-20T23:26:33.958Z,1
2022-11-20T23:28:35.866Z,1.2
2022-11-20T23:30:40.961Z,1.1
2022-11-20T23:32:42.812Z,1.2
2022-11-20T23:34:44.696Z,0.9
2022-11-20T23:36:46.555Z,1.2
2022-11-20T23:38:48.452Z,1.2
2022-11-20T23:40:50.369Z,1
2022-11-20T23:42:52.215Z,0.8
2022-11-20T23:46:59.201Z,1
2022-11-20T23:49:01.060Z,1.1
2022-11-20T23:50:03.614Z,0.9
2022-11-20T23:52:05.475Z,1
2022-11-20T23:54:07.376Z,1.1
2022-11-20T23:56:09.240Z,1.1
2022-11-20T23:58:14.297Z,1.2
